Time,TemperatureF,DewpointF,PressureIn,WindDirection,WindDirectionDegrees,WindSpeedMPH,WindSpeedGustMPH,Humidity,HourlyPrecipIn,Conditions,Clouds,dailyrainin,SoftwareType,DateUTC
2013-01-16 00:00:00,32.5,21.7,30.30,NE,35,1.0,3.0,64,0.00,CLR,OVC,0.00,WeatherDisplay:10.37,2013-01-16 05:00:00,
2013-01-16 00:05:00,32.2,21.0,30.30,ENE,67,1.0,3.0,63,0.00,CLR,OVC,0.00,WeatherDisplay:10.37,2013-01-16 05:05:00,
2013-01-16 00:10:00,32.2,21.0,30.30,NE,39,1.0,2.0,63,0.00,CLR,OVC,0.00,WeatherDisplay:10.37,2013-01-16 05:10:00,
2013-01-16 00:15:00,32.2,21.0,30.30,North,4,1.0,2.0,63,0.00,CLR,OVC,0.00,WeatherDisplay:10.37,2013-01-16 05:15:00,
2013-01-16 00:20:00,32.2,21.0,30.30,North,3,1.0,0.0,63,0.00,CLR,OVC,0.00,WeatherDisplay:10.37,2013-01-16 05:20:00,
2013-01-16 00:30:00,32.2,21.4,30.32,NNE,29,0.0,1.0,64,0.00,CLR,OVC,0.00,WeatherDisplay:10.37,2013-01-16 05:30:00,
2013-01-16 00:40:00,32.2,21.7,30.32,NNE,33,0.0,0.0,65,0.00,CLR,OVC,0.00,WeatherDisplay:10.37,2013-01-16 05:40:00,
2013-01-16 00:45:00,32.2,21.7,30.32,NNE,26,0.0,0.0,65,0.00,CLR,OVC,0.00,WeatherDisplay:10.37,2013-01-16 05:45:00,
2013-01-16 00:50:00,32.2,21.7,30.31,East,94,0.0,3.0,65,0.00,CLR,OVC,0.00,WeatherDisplay:10.37,2013-01-16 05:50:00,
2013-01-16 01:00:00,32.2,21.7,30.31,NNE,17,0.0,1.0,65,0.00,CLR,OVC,0.00,WeatherDisplay:10.37,2013-01-16 06:00:00,
2013-01-16 01:05:00,32.2,21.7,30.31,NE,41,0.0,0.0,65,0.00,CLR,OVC,0.00,WeatherDisplay:10.37,2013-01-16 06:05:00,
2013-01-16 01:10:00,32.0,21.6,30.30,NE,34,0.0,2.0,65,0.00,CLR,OVC,0.00,WeatherDisplay:10.37,2013-01-16 06:10:00,
2013-01-16 01:20:00,32.2,21.7,30.30,NE,37,1.0,2.0,65,0.00,CLR,OVC,0.00,WeatherDisplay:10.37,2013-01-16 06:20:00,
2013-01-16 01:30:00,32.0,21.6,30.30,ESE,111,0.0,1.0,65,0.00,CLR,OVC,0.00,WeatherDisplay:10.37,2013-01-16 06:30:00,
2013-01-16 01:40:00,32.2,22.1,30.30,ENE,64,0.0,2.0,66,0.00,CLR,OVC,0.00,WeatherDisplay:10.37,2013-01-16 06:40:00,
2013-01-16 01:50:00,32.0,21.6,30.30,NE,37,1.0,2.0,65,0.00,CLR,OVC,0.00,WeatherDisplay:10.37,2013-01-16 06:50:00,
2013-01-16 02:00:00,32.0,21.6,30.30,East,95,0.0,1.0,65,0.00,CLR,OVC,0.00,WeatherDisplay:10.37,2013-01-16 07:00:00,
2013-01-16 02:10:00,32.2,21.7,30.30,ENE,76,1.0,3.0,65,0.00,CLR,OVC,0.00,WeatherDisplay:10.37,2013-01-16 07:10:00,
2013-01-16 02:15:00,32.0,21.6,30.30,NE,38,1.0,2.0,65,0.00,CLR,OVC,0.00,WeatherDisplay:10.37,2013-01-16 07:15:00,
2013-01-16 02:20:00,32.0,21.2,30.30,NNE,18,1.0,2.0,64,0.00,CLR,OVC,0.00,WeatherDisplay:10.37,2013-01-16 07:20:00,
2013-01-16 02:30:00,32.0,21.6,30.30,East,85,0.0,2.0,65,0.00,CLR,OVC,0.00,WeatherDisplay:10.37,2013-01-16 07:30:00,
2013-01-16 02:40:00,31.8,21.0,30.30,WSW,253,1.0,3.0,64,0.00,CLR,OVC,0.00,WeatherDisplay:10.37,2013-01-16 07:40:00,
2013-01-16 02:50:00,32.2,22.1,30.30,NNW,327,0.0,2.0,66,0.00,CLR,OVC,0.00,WeatherDisplay:10.37,2013-01-16 07:50:00,
2013-01-16 03:00:00,32.0,21.6,30.30,North,5,0.0,2.0,65,0.00,CLR,OVC,0.00,WeatherDisplay:10.37,2013-01-16 08:00:00,
2013-01-16 03:10:00,32.2,22.1,30.29,NW,315,0.0,2.0,66,0.00,CLR,OVC,0.00,WeatherDisplay:10.37,2013-01-16 08:10:00,
2013-01-16 03:20:00,32.2,22.1,30.29,SE,129,0.0,1.0,66,0.00,CLR,OVC,0.00,WeatherDisplay:10.37,2013-01-16 08:20:00,
2013-01-16 03:30:00,32.5,22.4,30.27,East,88,0.0,0.0,66,0.00,CLR,OVC,0.00,WeatherDisplay:10.37,2013-01-16 08:30:00,
2013-01-16 03:40:00,32.5,22.8,30.27,NNW,327,0.0,1.0,67,0.00,CLR,OVC,0.00,WeatherDisplay:10.37,2013-01-16 08:40:00,
2013-01-16 03:50:00,32.5,23.1,30.26,North,7,0.0,1.0,68,0.00,CLR,OVC,0.00,WeatherDisplay:10.37,2013-01-16 08:50:00,
2013-01-16 04:00:00,32.5,23.1,30.26,North,354,0.0,2.0,68,0.00,CLR,OVC,0.00,WeatherDisplay:10.37,2013-01-16 09:00:00,
2013-01-16 04:10:00,32.5,23.1,30.24,NNE,24,0.0,2.0,68,0.00,CLR,OVC,0.00,WeatherDisplay:10.37,2013-01-16 09:10:00,
2013-01-16 04:20:00,32.7,23.3,30.24,NE,45,0.0,2.0,68,0.00,CLR,OVC,0.00,WeatherDisplay:10.37,2013-01-16 09:20:00,
2013-01-16 04:30:00,32.7,23.3,30.24,NNW,331,0.0,4.0,68,0.00,CLR,OVC,0.00,WeatherDisplay:10.37,2013-01-16 09:30:00,
2013-01-16 04:40:00,32.9,23.8,30.24,East,81,1.0,3.0,69,0.00,CLR,OVC,0.00,WeatherDisplay:10.37,2013-01-16 09:40:00,
2013-01-16 04:50:00,32.9,23.8,30.22,WNW,288,0.0,2.0,69,0.00,CLR,OVC,0.00,WeatherDisplay:10.37,2013-01-16 09:50:00,
2013-01-16 05:00:00,33.3,24.2,30.22,WSW,243,1.0,3.0,69,0.00,CLR,OVC,0.00,WeatherDisplay:10.37,2013-01-16 10:00:00,
2013-01-16 05:05:00,33.3,24.2,30.22,West,275,1.0,5.0,69,0.00,CLR,OVC,0.00,WeatherDisplay:10.37,2013-01-16 10:05:00,
2013-01-16 05:10:00,33.3,23.8,30.22,WSW,256,1.0,3.0,68,0.00,CLR,OVC,0.00,WeatherDisplay:10.37,2013-01-16 10:10:00,
2013-01-16 05:15:00,33.3,23.8,30.22,SW,229,1.0,3.0,68,0.00,CLR,OVC,0.00,WeatherDisplay:10.37,2013-01-16 10:15:00,
2013-01-16 05:25:00,33.3,23.8,30.22,NW,324,1.0,7.0,68,0.00,CLR,OVC,0.00,WeatherDisplay:10.37,2013-01-16 10:25:00,
2013-01-16 05:30:00,33.4,24.4,30.20,NW,309,1.0,4.0,69,0.00,CLR,OVC,0.00,WeatherDisplay:10.37,2013-01-16 10:30:00,
2013-01-16 05:40:00,33.4,24.7,30.20,WNW,283,1.0,3.0,70,0.00,CLR,OVC,0.00,WeatherDisplay:10.37,2013-01-16 10:40:00,
2013-01-16 05:50:00,33.4,24.4,30.22,WSW,240,1.0,3.0,69,0.00,CLR,OVC,0.00,WeatherDisplay:10.37,2013-01-16 10:50:00,
2013-01-16 06:00:00,33.6,24.5,30.22,NE,43,1.0,3.0,69,0.00,CLR,OVC,0.00,WeatherDisplay:10.37,2013-01-16 11:00:00,
2013-01-16 06:10:00,33.6,24.5,30.19,WNW,292,1.0,3.0,69,0.00,CLR,OVC,0.00,WeatherDisplay:10.37,2013-01-16 11:10:00,
2013-01-16 06:20:00,33.6,24.9,30.19,NNW,332,1.0,3.0,70,0.00,CLR,OVC,0.00,WeatherDisplay:10.37,2013-01-16 11:20:00,
2013-01-16 06:30:00,34.0,25.9,30.20,SW,233,2.0,5.0,72,0.00,CLR,OVC,0.00,WeatherDisplay:10.37,2013-01-16 11:30:00,
2013-01-16 06:40:00,33.6,26.5,30.20,SE,132,2.0,9.0,75,0.00,CLR,OVC,0.00,WeatherDisplay:10.37,2013-01-16 11:40:00,
2013-01-16 06:45:00,33.4,27.0,30.20,South,173,2.0,6.0,77,0.00,CLR,OVC,0.00,WeatherDisplay:10.37,2013-01-16 11:45:00,
2013-01-16 06:50:00,33.3,27.1,30.19,SW,227,2.0,5.0,78,0.00,CLR,OVC,0.00,WeatherDisplay:10.37,2013-01-16 11:50:00,
2013-01-16 07:00:00,33.3,27.8,30.19,SSE,155,1.0,3.0,80,0.00,CLR,OVC,0.00,WeatherDisplay:10.37,2013-01-16 12:00:00,
2013-01-16 07:05:00,33.3,28.4,30.19,WSW,244,1.0,2.0,82,0.00,CLR,OVC,0.00,WeatherDisplay:10.37,2013-01-16 12:05:00,
2013-01-16 07:10:00,33.3,28.4,30.18,WSW,252,1.0,5.0,82,0.00,CLR,OVC,0.00,WeatherDisplay:10.37,2013-01-16 12:10:00,
2013-01-16 07:15:00,33.3,28.7,30.18,WNW,283,1.0,2.0,83,0.00,CLR,OVC,0.00,WeatherDisplay:10.37,2013-01-16 12:15:00,
2013-01-16 07:20:00,33.3,28.9,30.18,WNW,297,1.0,5.0,84,0.00,CLR,OVC,0.00,WeatherDisplay:10.37,2013-01-16 12:20:00,
2013-01-16 07:30:00,33.3,29.2,30.19,NW,308,1.0,2.0,85,0.00,CLR,OVC,0.00,WeatherDisplay:10.37,2013-01-16 12:30:00,
2013-01-16 07:35:00,33.3,29.2,30.19,NNW,346,0.0,3.0,85,0.00,CLR,OVC,0.00,WeatherDisplay:10.37,2013-01-16 12:35:00,
2013-01-16 07:40:00,32.9,28.9,30.19,NW,324,0.0,3.0,85,0.00,CLR,OVC,0.00,WeatherDisplay:10.37,2013-01-16 12:40:00,
2013-01-16 07:50:00,33.3,29.5,30.18,North,6,0.0,3.0,86,0.00,CLR,OVC,0.00,WeatherDisplay:10.37,2013-01-16 12:50:00,
2013-01-16 08:00:00,33.3,29.5,30.18,NE,49,0.0,0.0,86,0.00,CLR,OVC,0.00,WeatherDisplay:10.37,2013-01-16 13:00:00,
2013-01-16 08:10:00,33.3,29.5,30.16,North,9,0.0,1.0,86,0.00,CLR,OVC,0.00,WeatherDisplay:10.37,2013-01-16 13:10:00,
2013-01-16 08:15:00,33.3,29.8,30.16,NNE,21,0.0,1.0,87,0.00,CLR,OVC,0.00,WeatherDisplay:10.37,2013-01-16 13:15:00,
2013-01-16 08:20:00,33.3,29.8,30.16,NE,45,0.0,0.0,87,0.00,CLR,OVC,0.00,WeatherDisplay:10.37,2013-01-16 13:20:00,
2013-01-16 08:30:00,33.1,29.6,30.17,North,8,0.0,2.0,87,0.00,CLR,OVC,0.00,WeatherDisplay:10.37,2013-01-16 13:30:00,
2013-01-16 08:40:00,33.3,29.8,30.17,NNW,332,0.0,2.0,87,0.00,CLR,OVC,0.00,WeatherDisplay:10.37,2013-01-16 13:40:00,
2013-01-16 08:45:00,33.3,29.8,30.17,North,358,0.0,2.0,87,0.00,CLR,OVC,0.00,WeatherDisplay:10.37,2013-01-16 13:45:00,
2013-01-16 08:50:00,33.4,30.0,30.17,NNE,14,0.0,1.0,87,0.00,CLR,OVC,0.00,WeatherDisplay:10.37,2013-01-16 13:50:00,
2013-01-16 09:00:00,33.3,29.8,30.17,NNW,347,0.0,0.0,87,0.00,CLR,OVC,0.00,WeatherDisplay:10.37,2013-01-16 14:00:00,
2013-01-16 09:10:00,33.3,30.1,30.14,North,349,0.0,0.0,88,0.00,CLR,OVC,0.00,WeatherDisplay:10.37,2013-01-16 14:10:00,
2013-01-16 09:20:00,33.4,30.3,30.14,North,6,0.0,0.0,88,0.00,CLR,OVC,0.00,WeatherDisplay:10.37,2013-01-16 14:20:00,
2013-01-16 09:30:00,33.3,30.1,30.15,East,90,0.0,0.0,88,0.00,CLR,OVC,0.00,WeatherDisplay:10.37,2013-01-16 14:30:00,
2013-01-16 09:40:00,33.3,30.1,30.15,North,351,0.0,0.0,88,0.00,CLR,OVC,0.00,WeatherDisplay:10.37,2013-01-16 14:40:00,
2013-01-16 09:50:00,33.3,30.1,30.12,WNW,290,0.0,0.0,88,0.00,CLR,OVC,0.00,WeatherDisplay:10.37,2013-01-16 14:50:00,
2013-01-16 10:00:00,33.4,30.3,30.12,NW,312,0.0,0.0,88,0.00,CLR,OVC,0.00,WeatherDisplay:10.37,2013-01-16 15:00:00,
2013-01-16 10:10:00,33.4,30.3,30.11,NW,323,0.0,0.0,88,0.00,CLR,OVC,0.00,WeatherDisplay:10.37,2013-01-16 15:10:00,
2013-01-16 10:15:00,33.4,30.3,30.11,NNW,338,0.0,0.0,88,0.00,CLR,OVC,0.00,WeatherDisplay:10.37,2013-01-16 15:15:00,
2013-01-16 10:20:00,33.4,30.5,30.11,North,351,0.0,0.0,89,0.00,CLR,OVC,0.00,WeatherDisplay:10.37,2013-01-16 15:20:00,
2013-01-16 10:30:00,33.4,30.5,30.10,NNE,31,0.0,1.0,89,0.00,CLR,OVC,0.00,WeatherDisplay:10.37,2013-01-16 15:30:00,
2013-01-16 10:40:00,33.4,30.5,30.10,ENE,61,0.0,0.0,89,0.00,CLR,OVC,0.00,WeatherDisplay:10.37,2013-01-16 15:40:00,
2013-01-16 10:50:00,33.6,30.7,30.07,NE,40,0.0,2.0,89,0.00,CLR,OVC,0.00,WeatherDisplay:10.37,2013-01-16 15:50:00,
2013-01-16 11:00:00,33.6,30.7,30.07,NE,36,0.0,2.0,89,0.00,CLR,OVC,0.00,WeatherDisplay:10.37,2013-01-16 16:00:00,
2013-01-16 11:10:00,33.6,30.7,30.06,NE,46,0.0,2.0,89,0.00,CLR,OVC,0.00,WeatherDisplay:10.37,2013-01-16 16:10:00,
2013-01-16 11:15:00,33.6,30.7,30.06,NE,50,0.0,0.0,89,0.00,CLR,OVC,0.00,WeatherDisplay:10.37,2013-01-16 16:15:00,
2013-01-16 11:20:00,33.6,30.7,30.06,ENE,59,0.0,0.0,89,0.00,CLR,OVC,0.00,WeatherDisplay:10.37,2013-01-16 16:20:00,
2013-01-16 11:30:00,33.6,30.7,30.06,NE,41,0.0,0.0,89,0.00,CLR,OVC,0.00,WeatherDisplay:10.37,2013-01-16 16:30:00,
2013-01-16 11:40:00,33.6,30.7,30.06,ENE,68,0.0,1.0,89,0.00,CLR,OVC,0.00,WeatherDisplay:10.37,2013-01-16 16:40:00,
2013-01-16 11:50:00,33.6,30.7,30.03,NE,40,0.0,0.0,89,0.00,CLR,OVC,0.00,WeatherDisplay:10.37,2013-01-16 16:50:00,
2013-01-16 12:00:00,33.6,30.7,30.03,NE,38,0.0,0.0,89,0.00,CLR,OVC,0.00,WeatherDisplay:10.37,2013-01-16 17:00:00,
2013-01-16 12:05:00,34.0,31.1,30.03,North,2,0.0,0.0,89,0.00,CLR,OVC,0.00,WeatherDisplay:10.37,2013-01-16 17:05:00,
2013-01-16 12:10:00,34.0,31.1,30.03,NNE,14,0.0,0.0,89,0.00,CLR,OVC,0.00,WeatherDisplay:10.37,2013-01-16 17:10:00,
2013-01-16 12:15:00,33.8,30.9,30.03,NNE,29,0.0,0.0,89,0.00,CLR,OVC,0.00,WeatherDisplay:10.37,2013-01-16 17:15:00,
2013-01-16 12:20:00,33.8,30.9,30.03,NNE,12,0.0,0.0,89,0.00,CLR,OVC,0.00,WeatherDisplay:10.37,2013-01-16 17:20:00,
2013-01-16 12:30:00,34.0,31.1,30.00,North,10,0.0,0.0,89,0.00,CLR,OVC,0.00,WeatherDisplay:10.37,2013-01-16 17:30:00,
2013-01-16 12:40:00,34.0,31.1,30.00,NNE,16,0.0,2.0,89,0.00,CLR,OVC,0.00,WeatherDisplay:10.37,2013-01-16 17:40:00,
2013-01-16 12:50:00,33.8,30.9,29.99,NNE,23,0.0,2.0,89,0.00,CLR,OVC,0.00,WeatherDisplay:10.37,2013-01-16 17:50:00,
2013-01-16 13:00:00,34.0,31.1,29.99,North,9,0.0,0.0,89,0.00,CLR,OVC,0.00,WeatherDisplay:10.37,2013-01-16 18:00:00,
2013-01-16 13:10:00,34.0,31.1,29.99,NNW,347,0.0,0.0,89,0.00,CLR,OVC,0.00,WeatherDisplay:10.37,2013-01-16 18:10:00,
2013-01-16 13:15:00,33.8,30.9,29.99,North,6,0.0,0.0,89,0.00,CLR,OVC,0.00,WeatherDisplay:10.37,2013-01-16 18:15:00,
2013-01-16 13:20:00,34.0,31.1,29.99,North,9,0.0,0.0,89,0.00,CLR,OVC,0.00,WeatherDisplay:10.37,2013-01-16 18:20:00,
2013-01-16 13:30:00,34.0,31.1,29.99,NE,36,0.0,1.0,89,0.00,CLR,OVC,0.00,WeatherDisplay:10.37,2013-01-16 18:30:00,
2013-01-16 13:40:00,33.8,30.9,29.99,NNE,22,0.0,0.0,89,0.00,CLR,OVC,0.00,WeatherDisplay:10.37,2013-01-16 18:40:00,
2013-01-16 13:50:00,33.8,30.9,29.96,NNE,27,0.0,1.0,89,0.00,CLR,OVC,0.00,WeatherDisplay:10.37,2013-01-16 18:50:00,
2013-01-16 14:00:00,34.0,31.1,29.96,NE,45,0.0,0.0,89,0.00,CLR,OVC,0.00,WeatherDisplay:10.37,2013-01-16 19:00:00,
2013-01-16 14:10:00,34.0,31.4,29.94,NE,45,0.0,0.0,90,0.00,CLR,OVC,0.00,WeatherDisplay:10.37,2013-01-16 19:10:00,
2013-01-16 14:20:00,34.0,31.1,29.94,ENE,59,0.0,0.0,89,0.00,CLR,OVC,0.00,WeatherDisplay:10.37,2013-01-16 19:20:00,
2013-01-16 14:30:00,34.0,31.1,29.93,NE,54,0.0,0.0,89,0.00,CLR,OVC,0.00,WeatherDisplay:10.37,2013-01-16 19:30:00,
2013-01-16 14:40:00,34.0,31.1,29.93,NE,51,0.0,0.0,89,0.00,CLR,OVC,0.00,WeatherDisplay:10.37,2013-01-16 19:40:00,
2013-01-16 14:50:00,33.8,30.9,29.90,ENE,58,0.0,0.0,89,0.00,CLR,OVC,0.00,WeatherDisplay:10.37,2013-01-16 19:50:00,
2013-01-16 15:00:00,34.0,31.4,29.90,NNE,13,0.0,0.0,90,0.00,CLR,OVC,0.00,WeatherDisplay:10.37,2013-01-16 20:00:00,
2013-01-16 15:05:00,34.0,31.4,29.90,NNE,21,0.0,0.0,90,0.00,CLR,OVC,0.00,WeatherDisplay:10.37,2013-01-16 20:05:00,
2013-01-16 15:10:00,34.0,31.4,29.91,NNE,13,0.0,0.0,90,0.00,CLR,OVC,0.00,WeatherDisplay:10.37,2013-01-16 20:10:00,
2013-01-16 15:15:00,34.0,31.4,29.91,North,356,0.0,0.0,90,0.00,CLR,OVC,0.00,WeatherDisplay:10.37,2013-01-16 20:15:00,
2013-01-16 15:20:00,34.0,31.4,29.91,North,352,0.0,0.0,90,0.00,CLR,OVC,0.00,WeatherDisplay:10.37,2013-01-16 20:20:00,
2013-01-16 15:30:00,34.0,31.4,29.90,NNE,20,0.0,1.0,90,0.00,CLR,OVC,0.00,WeatherDisplay:10.37,2013-01-16 20:30:00,
2013-01-16 15:40:00,33.6,31.0,29.90,NNE,27,0.0,0.0,90,0.00,CLR,OVC,0.00,WeatherDisplay:10.37,2013-01-16 20:40:00,
2013-01-16 15:50:00,34.0,31.4,29.91,North,351,0.0,0.0,90,0.00,CLR,OVC,0.00,WeatherDisplay:10.37,2013-01-16 20:50:00,
2013-01-16 16:00:00,34.0,31.4,29.91,NNW,343,2.0,5.0,90,0.00,CLR,OVC,0.00,WeatherDisplay:10.37,2013-01-16 21:00:00,
2013-01-16 16:10:00,34.0,31.4,29.89,NNW,329,2.0,4.0,90,0.00,CLR,OVC,0.00,WeatherDisplay:10.37,2013-01-16 21:10:00,
2013-01-16 16:15:00,34.0,31.6,29.89,NNW,331,2.0,4.0,91,0.00,CLR,OVC,0.00,WeatherDisplay:10.37,2013-01-16 21:15:00,
2013-01-16 16:20:00,34.0,31.6,29.89,NNW,342,2.0,4.0,91,0.00,CLR,OVC,0.00,WeatherDisplay:10.37,2013-01-16 21:20:00,
2013-01-16 16:30:00,34.0,31.6,29.90,NW,324,2.0,3.0,91,0.00,CLR,OVC,0.00,WeatherDisplay:10.37,2013-01-16 21:30:00,
2013-01-16 16:40:00,34.0,31.6,29.90,NW,320,2.0,5.0,91,0.00,CLR,OVC,0.00,WeatherDisplay:10.37,2013-01-16 21:40:00,
2013-01-16 16:50:00,34.0,31.6,29.90,NW,325,5.0,6.0,91,0.00,CLR,OVC,0.00,WeatherDisplay:10.37,2013-01-16 21:50:00,
2013-01-16 17:00:00,33.8,31.5,29.90,NW,321,6.0,8.0,91,0.00,CLR,OVC,0.00,WeatherDisplay:10.37,2013-01-16 22:00:00,
2013-01-16 17:05:00,34.0,31.6,29.90,NW,313,6.0,8.0,91,0.00,CLR,OVC,0.00,WeatherDisplay:10.37,2013-01-16 22:05:00,
2013-01-16 17:10:00,34.0,31.6,29.91,NW,305,7.0,10.0,91,0.00,CLR,OVC,0.00,WeatherDisplay:10.37,2013-01-16 22:10:00,
2013-01-16 17:20:00,33.8,31.5,29.91,North,352,3.0,4.0,91,0.00,CLR,OVC,0.00,WeatherDisplay:10.37,2013-01-16 22:20:00,
2013-01-16 17:25:00,33.8,31.5,29.91,North,356,2.0,5.0,91,0.00,CLR,OVC,0.00,WeatherDisplay:10.37,2013-01-16 22:25:00,
2013-01-16 17:30:00,33.6,31.3,29.90,NNW,330,2.0,5.0,91,0.00,CLR,OVC,0.00,WeatherDisplay:10.37,2013-01-16 22:30:00,
2013-01-16 17:40:00,33.6,31.3,29.90,North,360,1.0,7.0,91,0.00,CLR,OVC,0.00,WeatherDisplay:10.37,2013-01-16 22:40:00,
2013-01-16 17:50:00,33.6,31.5,29.89,NNW,334,3.0,6.0,92,0.03,RA,OVC,0.03,WeatherDisplay:10.37,2013-01-16 22:50:00,
2013-01-16 18:00:00,33.6,31.5,29.89,NNW,333,3.0,5.0,92,0.06,RA,OVC,0.06,WeatherDisplay:10.37,2013-01-16 23:00:00,
2013-01-16 18:10:00,33.4,31.1,29.88,NNW,327,3.0,5.0,91,0.06,RA,OVC,0.06,WeatherDisplay:10.37,2013-01-16 23:10:00,
2013-01-16 18:20:00,33.6,31.5,29.88,NNE,16,0.0,0.0,92,0.09,RA,OVC,0.09,WeatherDisplay:10.37,2013-01-16 23:20:00,
2013-01-16 18:30:00,33.4,31.1,29.88,North,3,2.0,5.0,91,0.13,RA,OVC,0.13,WeatherDisplay:10.37,2013-01-16 23:30:00,
2013-01-16 18:40:00,33.4,31.1,29.88,North,10,0.0,7.0,91,0.13,RA,OVC,0.13,WeatherDisplay:10.37,2013-01-16 23:40:00,
2013-01-16 18:50:00,33.3,30.9,29.88,NNW,329,1.0,5.0,91,0.13,RA,OVC,0.16,WeatherDisplay:10.37,2013-01-16 23:50:00,
2013-01-16 19:00:00,33.4,31.1,29.88,NW,319,2.0,6.0,91,0.09,RA,OVC,0.16,WeatherDisplay:10.37,2013-01-17 00:00:00,
2013-01-16 19:10:00,33.6,31.5,29.87,NNW,333,2.0,6.0,92,0.13,RA,OVC,0.19,WeatherDisplay:10.37,2013-01-17 00:10:00,
2013-01-16 19:15:00,33.4,31.1,29.87,NNW,331,3.0,5.0,91,0.09,RA,OVC,0.19,WeatherDisplay:10.37,2013-01-17 00:15:00,
2013-01-16 19:20:00,33.6,31.5,29.87,NNW,338,3.0,5.0,92,0.13,RA,OVC,0.22,WeatherDisplay:10.37,2013-01-17 00:20:00,
2013-01-16 19:30:00,33.4,31.1,29.85,NNW,338,3.0,5.0,91,0.10,RA,OVC,0.22,WeatherDisplay:10.37,2013-01-17 00:30:00,
2013-01-16 19:40:00,33.4,31.1,29.85,NNW,330,5.0,6.0,91,0.13,RA,OVC,0.26,WeatherDisplay:10.37,2013-01-17 00:40:00,
2013-01-16 19:45:00,33.4,31.1,29.85,NNW,341,3.0,5.0,91,0.13,RA,OVC,0.26,WeatherDisplay:10.37,2013-01-17 00:45:00,
2013-01-16 19:50:00,33.4,31.1,29.85,NNW,339,3.0,6.0,91,0.13,RA,OVC,0.29,WeatherDisplay:10.37,2013-01-17 00:50:00,
2013-01-16 20:00:00,33.4,31.4,29.85,NW,315,3.0,5.0,92,0.13,RA,OVC,0.29,WeatherDisplay:10.37,2013-01-17 01:00:00,
2013-01-16 20:10:00,33.4,31.4,29.86,NW,321,3.0,7.0,92,0.10,RA,OVC,0.29,WeatherDisplay:10.37,2013-01-17 01:10:00,
2013-01-16 20:20:00,33.4,31.4,29.86,NW,310,3.0,5.0,92,0.09,RA,OVC,0.32,WeatherDisplay:10.37,2013-01-17 01:20:00,
2013-01-16 20:30:00,33.4,31.4,29.85,NW,315,5.0,7.0,92,0.13,RA,OVC,0.35,WeatherDisplay:10.37,2013-01-17 01:30:00,
2013-01-16 20:40:00,33.1,31.0,29.85,NNW,328,7.0,7.0,92,0.09,RA,OVC,0.35,WeatherDisplay:10.37,2013-01-17 01:40:00,
2013-01-16 20:50:00,33.3,31.2,29.85,NW,320,5.0,6.0,92,0.09,RA,OVC,0.38,WeatherDisplay:10.37,2013-01-17 01:50:00,
2013-01-16 21:00:00,33.3,31.2,29.85,NW,311,3.0,5.0,92,0.13,RA,OVC,0.41,WeatherDisplay:10.37,2013-01-17 02:00:00,
2013-01-16 21:10:00,33.1,31.0,29.84,NW,314,5.0,5.0,92,0.13,RA,OVC,0.41,WeatherDisplay:10.37,2013-01-17 02:10:00,
2013-01-16 21:15:00,32.9,30.8,29.84,WNW,299,6.0,8.0,92,0.16,RA,OVC,0.44,WeatherDisplay:10.37,2013-01-17 02:15:00,
2013-01-16 21:20:00,32.9,30.8,29.84,WNW,302,6.0,8.0,92,0.13,RA,OVC,0.44,WeatherDisplay:10.37,2013-01-17 02:20:00,
2013-01-16 21:30:00,32.7,30.7,29.84,NW,310,6.0,8.0,92,0.09,RA,OVC,0.44,WeatherDisplay:10.37,2013-01-17 02:30:00,
2013-01-16 21:40:00,32.7,30.7,29.84,NW,306,5.0,6.0,92,0.09,RA,OVC,0.44,WeatherDisplay:10.37,2013-01-17 02:40:00,
2013-01-16 21:50:00,32.5,30.5,29.84,NW,320,5.0,6.0,92,0.09,RA,OVC,0.48,WeatherDisplay:10.37,2013-01-17 02:50:00,
2013-01-16 22:00:00,32.7,30.7,29.84,NW,325,3.0,5.0,92,0.06,RA,OVC,0.48,WeatherDisplay:10.37,2013-01-17 03:00:00,
2013-01-16 22:10:00,32.9,30.8,29.82,NW,317,1.0,2.0,92,0.06,RA,OVC,0.48,WeatherDisplay:10.37,2013-01-17 03:10:00,
2013-01-16 22:20:00,32.9,30.8,29.82,NNW,328,2.0,6.0,92,0.03,RA,OVC,0.48,WeatherDisplay:10.37,2013-01-17 03:20:00,
2013-01-16 22:30:00,33.3,31.2,29.82,NW,320,3.0,4.0,92,0.03,RA,OVC,0.48,WeatherDisplay:10.37,2013-01-17 03:30:00,
2013-01-16 22:40:00,32.9,30.8,29.82,NW,311,5.0,7.0,92,0.03,RA,OVC,0.48,WeatherDisplay:10.37,2013-01-17 03:40:00,
2013-01-16 22:50:00,32.7,30.7,29.83,NW,315,3.0,5.0,92,0.00,RA,OVC,0.48,WeatherDisplay:10.37,2013-01-17 03:50:00,
2013-01-16 23:00:00,32.7,30.7,29.83,NW,324,3.0,6.0,92,0.00,RA,OVC,0.48,WeatherDisplay:10.37,2013-01-17 04:00:00,
2013-01-16 23:05:00,32.7,30.7,29.83,NW,317,3.0,6.0,92,0.03,RA,OVC,0.51,WeatherDisplay:10.37,2013-01-17 04:05:00,
2013-01-16 23:10:00,32.7,30.7,29.83,NW,316,5.0,5.0,92,0.03,RA,OVC,0.51,WeatherDisplay:10.37,2013-01-17 04:10:00,
2013-01-16 23:15:00,32.7,30.7,29.83,NNW,327,5.0,7.0,92,0.03,RA,OVC,0.51,WeatherDisplay:10.37,2013-01-17 04:15:00,
2013-01-16 23:20:00,32.7,30.7,29.83,NW,320,5.0,7.0,92,0.03,RA,OVC,0.51,WeatherDisplay:10.37,2013-01-17 04:20:00,
2013-01-16 23:30:00,32.5,30.5,29.82,WNW,293,5.0,6.0,92,0.03,RA,OVC,0.51,WeatherDisplay:10.37,2013-01-17 04:30:00,
2013-01-16 23:40:00,32.5,30.5,29.82,WNW,301,3.0,4.0,92,0.03,RA,OVC,0.51,WeatherDisplay:10.37,2013-01-17 04:40:00,
2013-01-16 23:45:00,32.5,30.5,29.82,NW,315,1.0,3.0,92,0.03,RA,OVC,0.51,WeatherDisplay:10.37,2013-01-17 04:45:00,
2013-01-16 23:50:00,32.5,30.5,29.82,NW,315,1.0,5.0,92,0.03,RA,OVC,0.51,WeatherDisplay:10.37,2013-01-17 04:50:00,